createdAt,value
2022-10-22T00:01:02.589Z,26.20
2022-10-22T00:03:31.207Z,26.20
2022-10-22T00:05:59.815Z,26.10
2022-10-22T00:08:28.129Z,26.10
2022-10-22T00:10:56.552Z,26.10
2022-10-22T00:13:25.251Z,26.10
2022-10-22T00:15:53.376Z,26.10
2022-10-22T00:18:21.715Z,26.10
2022-10-22T00:20:49.857Z,26.00
2022-10-22T00:23:18.169Z,26.00
2022-10-22T00:25:46.567Z,26.00
2022-10-22T00:28:15.196Z,26.00
2022-10-22T00:30:43.439Z,26.00
2022-10-22T00:33:11.497Z,26.00
2022-10-22T00:35:39.932Z,25.90
2022-10-22T00:38:08.063Z,25.90
2022-10-22T00:40:36.724Z,26.00
2022-10-22T00:43:05.146Z,26.00
2022-10-22T00:45:33.201Z,26.00
2022-10-22T00:48:11.305Z,26.00
2022-10-22T00:50:45.741Z,25.90
2022-10-22T00:53:19.499Z,25.90
2022-10-22T00:55:52.047Z,25.90
2022-10-22T00:58:22.789Z,25.90
2022-10-22T01:00:51.970Z,25.90
2022-10-22T01:03:20.982Z,25.80
2022-10-22T01:06:01.166Z,25.90
2022-10-22T01:09:07.536Z,25.90
2022-10-22T01:12:03.196Z,25.90
2022-10-22T01:15:07.063Z,25.90
2022-10-22T01:17:53.096Z,25.90
2022-10-22T01:20:21.323Z,25.90
2022-10-22T01:23:04.733Z,25.90
2022-10-22T01:25:38.603Z,25.90
2022-10-22T01:28:51.144Z,25.90
2022-10-22T01:31:22.178Z,25.90
2022-10-22T01:33:54.041Z,25.90
2022-10-22T01:36:22.971Z,25.90
2022-10-22T01:38:52.706Z,25.80
2022-10-22T01:41:21.190Z,25.80
2022-10-22T01:43:49.425Z,25.80
2022-10-22T01:46:18.855Z,25.80
2022-10-22T01:49:05.499Z,25.80
2022-10-22T01:51:58.333Z,25.70
2022-10-22T01:54:40.164Z,25.70
2022-10-22T01:57:44.701Z,25.70
2022-10-22T02:00:15.400Z,25.80
2022-10-22T02:02:52.495Z,25.80
2022-10-22T02:05:29.188Z,25.80
2022-10-22T02:08:09.708Z,25.70
2022-10-22T02:10:44.993Z,25.70
2022-10-22T02:13:20.525Z,25.70
2022-10-22T02:15:52.491Z,25.70
2022-10-22T02:18:30.310Z,25.70
2022-10-22T02:21:00.470Z,25.70
2022-10-22T02:23:29.375Z,25.60
2022-10-22T02:26:28.841Z,25.70
2022-10-22T02:29:22.247Z,25.60
2022-10-22T02:31:53.411Z,25.70
2022-10-22T02:34:26.946Z,25.70
2022-10-22T02:36:56.155Z,25.60
2022-10-22T02:39:24.608Z,25.70
2022-10-22T02:41:52.977Z,25.60
2022-10-22T02:44:22.839Z,25.60
2022-10-22T02:46:51.706Z,25.60
2022-10-22T02:49:20.003Z,25.60
2022-10-22T02:51:48.288Z,25.60
2022-10-22T02:54:16.643Z,25.50
2022-10-22T02:56:44.809Z,25.50
2022-10-22T02:59:13.047Z,25.50
2022-10-22T03:01:41.175Z,25.50
2022-10-22T03:04:09.865Z,25.50
2022-10-22T03:06:37.925Z,25.60
2022-10-22T03:09:06.206Z,25.50
2022-10-22T03:11:34.431Z,25.50
2022-10-22T03:14:02.663Z,25.50
2022-10-22T03:16:30.864Z,25.50
2022-10-22T03:18:59.076Z,25.50
2022-10-22T03:21:32.560Z,25.40
2022-10-22T03:24:06.404Z,25.50
2022-10-22T03:26:35.190Z,25.40
2022-10-22T03:29:03.445Z,25.40
2022-10-22T03:31:31.778Z,25.40
2022-10-22T03:33:59.939Z,25.50
2022-10-22T03:36:28.276Z,25.50
2022-10-22T03:38:56.724Z,25.50
2022-10-22T03:41:24.904Z,25.50
2022-10-22T03:43:53.275Z,25.50
2022-10-22T03:46:21.629Z,25.50
2022-10-22T03:48:50.075Z,25.50
2022-10-22T03:51:18.287Z,25.50
2022-10-22T03:53:46.748Z,25.50
2022-10-22T03:56:15.282Z,25.50
2022-10-22T03:58:43.526Z,25.50
2022-10-22T04:01:13.447Z,25.50
2022-10-22T04:03:42.239Z,25.40
2022-10-22T04:06:14.806Z,25.40
2022-10-22T04:08:45.196Z,25.40
2022-10-22T04:11:14.394Z,25.30
2022-10-22T04:13:43.113Z,25.30
2022-10-22T04:16:16.463Z,25.30
2022-10-22T04:18:46.317Z,25.30
2022-10-22T04:21:17.925Z,25.30
2022-10-22T04:23:51.220Z,25.30
2022-10-22T04:26:20.784Z,25.40
2022-10-22T04:28:51.429Z,25.30
2022-10-22T04:31:22.413Z,25.30
2022-10-22T04:33:58.346Z,25.30
2022-10-22T04:36:27.579Z,25.30
2022-10-22T04:38:58.348Z,25.30
2022-10-22T04:41:29.891Z,25.30
2022-10-22T04:43:59.293Z,25.30
2022-10-22T04:46:31.819Z,25.30
2022-10-22T04:49:00.404Z,25.30
2022-10-22T04:51:28.953Z,25.30
2022-10-22T04:53:57.292Z,25.30
2022-10-22T04:56:57.313Z,25.30
2022-10-22T04:59:25.648Z,25.30
2022-10-22T05:01:53.702Z,25.30
2022-10-22T05:04:21.952Z,25.30
2022-10-22T05:06:50.307Z,25.30
2022-10-22T05:09:20.491Z,25.30
2022-10-22T05:11:51.182Z,25.30
2022-10-22T05:14:22.228Z,25.30
2022-10-22T05:16:51.331Z,25.20
2022-10-22T05:19:23.799Z,25.20
2022-10-22T05:21:57.354Z,25.20
2022-10-22T05:24:26.641Z,25.20
2022-10-22T05:26:56.758Z,25.20
2022-10-22T05:29:25.473Z,25.10
2022-10-22T05:31:54.040Z,25.00
2022-10-22T05:34:22.334Z,25.00
2022-10-22T05:36:50.731Z,25.00
2022-10-22T05:39:18.939Z,25.00
2022-10-22T05:41:47.262Z,25.00
2022-10-22T05:44:15.404Z,25.00
2022-10-22T05:46:43.614Z,25.00
2022-10-22T05:49:16.609Z,25.00
2022-10-22T05:51:44.851Z,25.00
2022-10-22T05:54:21.389Z,24.90
2022-10-22T05:56:50.005Z,24.90
2022-10-22T05:59:18.244Z,24.90
2022-10-22T06:01:46.463Z,24.90
2022-10-22T06:04:14.893Z,25.00
2022-10-22T06:07:00.745Z,25.00
2022-10-22T06:09:35.419Z,24.90
2022-10-22T06:12:03.931Z,24.90
2022-10-22T06:14:32.516Z,24.90
2022-10-22T06:17:01.204Z,25.00
2022-10-22T06:19:29.518Z,25.00
2022-10-22T06:21:57.601Z,25.00
2022-10-22T06:24:25.899Z,25.00
2022-10-22T06:26:53.993Z,25.00
2022-10-22T06:29:22.744Z,25.00
2022-10-22T06:31:51.199Z,25.00
2022-10-22T06:34:19.313Z,25.00
2022-10-22T06:36:47.981Z,25.00
2022-10-22T06:39:18.211Z,25.00
2022-10-22T06:41:46.553Z,25.00
2022-10-22T06:44:21.617Z,25.10
2022-10-22T06:46:53.352Z,25.10
2022-10-22T06:49:22.008Z,25.10
2022-10-22T06:51:54.119Z,25.10
2022-10-22T06:54:22.566Z,25.20
2022-10-22T06:56:50.978Z,25.20
2022-10-22T06:59:19.043Z,25.20
2022-10-22T07:01:47.475Z,25.20
2022-10-22T07:04:15.710Z,25.20
2022-10-22T07:06:43.863Z,25.20
2022-10-22T07:09:12.244Z,25.20
2022-10-22T07:11:45.493Z,25.20
2022-10-22T07:14:14.732Z,25.30
2022-10-22T07:16:42.974Z,25.30
2022-10-22T07:19:11.256Z,25.30
2022-10-22T07:21:39.868Z,25.30
2022-10-22T07:24:08.408Z,25.40
2022-10-22T07:26:36.980Z,25.40
2022-10-22T07:29:05.863Z,25.40
2022-10-22T07:31:34.263Z,25.50
2022-10-22T07:34:02.448Z,25.50
2022-10-22T07:36:30.768Z,25.50
2022-10-22T07:39:00.430Z,25.50
2022-10-22T07:41:30.590Z,25.50
2022-10-22T07:43:59.307Z,25.50
2022-10-22T07:46:28.216Z,25.60
2022-10-22T07:48:56.758Z,25.60
2022-10-22T07:51:25.051Z,25.60
2022-10-22T07:53:53.438Z,25.60
2022-10-22T07:56:21.920Z,25.70
2022-10-22T07:58:50.169Z,25.70
2022-10-22T08:01:18.558Z,25.80
2022-10-22T08:03:46.986Z,26.00
2022-10-22T08:06:15.242Z,26.00
2022-10-22T08:08:43.816Z,26.10
2022-10-22T08:11:12.737Z,26.10
2022-10-22T08:13:45.122Z,26.20
2022-10-22T08:16:14.335Z,26.30
2022-10-22T08:18:43.047Z,26.30
2022-10-22T08:21:12.381Z,26.40
2022-10-22T08:23:40.873Z,26.50
2022-10-22T08:26:09.156Z,26.60
2022-10-22T08:28:37.819Z,26.60
2022-10-22T08:31:08.136Z,26.70
2022-10-22T08:33:36.860Z,26.70
2022-10-22T08:36:05.393Z,26.70
2022-10-22T08:38:33.780Z,26.70
2022-10-22T08:41:14.978Z,26.80
2022-10-22T08:44:10.158Z,26.80
2022-10-22T08:47:19.964Z,26.80
2022-10-22T08:49:50.859Z,26.90
2022-10-22T08:52:20.389Z,26.90
2022-10-22T08:54:57.908Z,27.00
2022-10-22T08:57:45.689Z,27.10
2022-10-22T09:00:49.463Z,27.20
2022-10-22T09:03:53.373Z,27.40
2022-10-22T09:06:33.414Z,27.50
2022-10-22T09:09:05.911Z,27.40
2022-10-22T09:11:37.491Z,27.40
2022-10-22T09:14:06.614Z,27.50
2022-10-22T09:16:43.417Z,27.60
2022-10-22T09:19:40.780Z,27.70
2022-10-22T09:22:41.320Z,27.70
2022-10-22T09:25:20.126Z,27.70
2022-10-22T09:27:49.964Z,27.70
2022-10-22T09:30:21.133Z,27.70
2022-10-22T09:33:00.939Z,27.70
2022-10-22T09:35:33.677Z,27.70
2022-10-22T09:38:08.547Z,27.70
2022-10-22T09:41:06.200Z,27.70
2022-10-22T09:43:35.149Z,27.80
2022-10-22T09:46:07.206Z,27.80
2022-10-22T09:48:48.312Z,27.80
2022-10-22T09:51:20.332Z,27.80
2022-10-22T09:53:55.618Z,27.80
2022-10-22T09:56:33.891Z,27.80
2022-10-22T09:59:02.583Z,27.80
2022-10-22T10:01:34.821Z,27.80
2022-10-22T10:04:12.465Z,27.80
2022-10-22T10:06:43.053Z,27.80
2022-10-22T10:09:18.348Z,27.80
2022-10-22T10:11:54.866Z,27.80
2022-10-22T10:14:50.036Z,27.90
2022-10-22T10:17:37.128Z,28.10
2022-10-22T10:20:23.528Z,28.20
2022-10-22T10:23:08.076Z,28.10
2022-10-22T10:26:13.357Z,28.20
2022-10-22T10:29:09.491Z,28.20
2022-10-22T10:31:56.403Z,28.30
2022-10-22T10:34:40.380Z,28.30
2022-10-22T10:37:41.231Z,28.30
2022-10-22T10:40:29.248Z,28.50
2022-10-22T10:43:22.183Z,28.70
2022-10-22T10:46:05.490Z,28.80
2022-10-22T10:48:45.795Z,28.80
2022-10-22T10:51:26.287Z,28.90
2022-10-22T10:54:13.177Z,29.00
2022-10-22T10:56:52.438Z,29.10
2022-10-22T10:59:36.601Z,28.90
2022-10-22T11:02:29.151Z,28.80
2022-10-22T11:05:29.023Z,28.80
2022-10-22T11:08:01.602Z,28.90
2022-10-22T11:10:53.257Z,28.90
2022-10-22T11:13:59.650Z,28.90
2022-10-22T11:16:33.357Z,28.80
2022-10-22T11:19:07.644Z,28.70
2022-10-22T11:21:59.717Z,28.60
2022-10-22T11:24:31.316Z,28.50
2022-10-22T11:27:25.843Z,28.40
2022-10-22T11:30:03.292Z,28.30
2022-10-22T11:32:34.003Z,28.30
2022-10-22T11:35:09.473Z,28.20
2022-10-22T11:37:38.403Z,28.10
2022-10-22T11:40:14.615Z,28.10
2022-10-22T11:42:50.471Z,28.10
2022-10-22T11:45:18.659Z,28.20
2022-10-22T11:48:11.162Z,28.10
2022-10-22T11:50:42.367Z,28.10
2022-10-22T11:53:16.568Z,28.10
2022-10-22T11:55:48.029Z,28.00
2022-10-22T11:58:29.587Z,28.00
2022-10-22T12:01:21.938Z,28.00
2022-10-22T12:04:06.721Z,27.90
2022-10-22T12:06:54.492Z,27.90
2022-10-22T12:09:25.467Z,27.80
2022-10-22T12:11:53.726Z,27.80
2022-10-22T12:14:27.729Z,27.90
2022-10-22T12:17:10.014Z,27.90
2022-10-22T12:19:47.986Z,27.80
2022-10-22T12:22:38.460Z,27.90
2022-10-22T12:25:23.729Z,27.90
2022-10-22T12:27:57.722Z,28.20
2022-10-22T12:30:32.409Z,28.40
2022-10-22T12:33:02.944Z,28.60
2022-10-22T12:35:33.882Z,28.80
2022-10-22T12:38:08.953Z,28.90
2022-10-22T12:40:37.218Z,29.10
2022-10-22T12:43:30.319Z,29.10
2022-10-22T12:46:00.291Z,29.30
2022-10-22T12:48:33.866Z,29.30
2022-10-22T12:51:05.151Z,29.40
2022-10-22T12:53:45.825Z,29.40
2022-10-22T12:56:18.385Z,29.40
2022-10-22T12:59:26.009Z,29.30
2022-10-22T13:01:55.126Z,29.30
2022-10-22T13:04:32.397Z,29.10
2022-10-22T13:07:06.608Z,29.20
2022-10-22T13:09:43.311Z,29.40
2022-10-22T13:12:12.593Z,29.60
2022-10-22T13:14:41.043Z,29.60
2022-10-22T13:17:15.072Z,29.70
2022-10-22T13:19:55.503Z,29.80
2022-10-22T13:22:36.192Z,29.60
2022-10-22T13:25:16.327Z,29.60
2022-10-22T13:27:49.689Z,29.60
2022-10-22T13:30:25.987Z,29.70
2022-10-22T13:33:03.605Z,29.70
2022-10-22T13:35:37.606Z,29.80
2022-10-22T13:38:16.584Z,29.70
2022-10-22T13:40:44.981Z,29.70
2022-10-22T13:43:13.339Z,29.60
2022-10-22T13:45:41.820Z,29.60
2022-10-22T13:48:17.404Z,29.60
2022-10-22T13:50:46.684Z,29.70
2022-10-22T13:53:21.326Z,30.00
2022-10-22T13:55:49.973Z,30.20
2022-10-22T13:58:23.085Z,30.30
2022-10-22T14:00:57.058Z,30.30
2022-10-22T14:03:34.912Z,30.20
2022-10-22T14:06:03.265Z,30.30
2022-10-22T14:08:32.417Z,30.30
2022-10-22T14:11:00.673Z,30.10
2022-10-22T14:13:28.892Z,29.90
2022-10-22T14:15:57.491Z,29.80
2022-10-22T14:18:27.805Z,29.70
2022-10-22T14:21:01.480Z,29.50
2022-10-22T14:23:31.777Z,29.60
2022-10-22T14:26:01.306Z,29.70
2022-10-22T14:28:31.358Z,29.80
2022-10-22T14:31:00.376Z,29.80
2022-10-22T14:33:32.396Z,29.80
2022-10-22T14:36:01.579Z,29.90
2022-10-22T14:38:30.566Z,30.00
2022-10-22T14:41:00.982Z,30.30
2022-10-22T14:43:31.368Z,30.50
2022-10-22T14:46:00.020Z,30.60
2022-10-22T14:48:29.694Z,30.90
2022-10-22T14:50:57.974Z,31.10
2022-10-22T14:53:26.224Z,31.30
2022-10-22T14:55:54.555Z,31.50
2022-10-22T14:58:22.807Z,31.40
2022-10-22T15:00:51.261Z,31.40
2022-10-22T15:03:19.450Z,31.50
2022-10-22T15:05:47.651Z,31.70
2022-10-22T15:08:16.378Z,31.90
2022-10-22T15:10:44.552Z,31.90
2022-10-22T15:13:12.899Z,31.80
2022-10-22T15:15:41.939Z,31.60
2022-10-22T15:18:10.304Z,31.50
2022-10-22T15:20:38.495Z,31.50
2022-10-22T15:23:06.704Z,31.70
2022-10-22T15:25:35.062Z,32.10
2022-10-22T15:28:09.572Z,32.20
2022-10-22T15:30:38.327Z,32.00
2022-10-22T15:33:07.076Z,31.80
2022-10-22T15:35:35.295Z,31.90
2022-10-22T15:38:03.507Z,32.00
2022-10-22T15:40:32.763Z,32.00
2022-10-22T15:43:00.919Z,32.00
2022-10-22T15:45:29.106Z,32.10
2022-10-22T15:47:57.314Z,32.10
2022-10-22T15:50:25.506Z,32.30
2022-10-22T15:52:53.870Z,32.30
2022-10-22T15:55:22.118Z,32.40
2022-10-22T15:57:50.291Z,32.60
2022-10-22T16:00:18.728Z,32.30
2022-10-22T16:02:46.955Z,32.40
2022-10-22T16:05:15.662Z,32.30
2022-10-22T16:07:44.065Z,31.70
2022-10-22T16:10:12.465Z,31.50
2022-10-22T16:12:40.995Z,31.40
2022-10-22T16:15:10.673Z,31.50
2022-10-22T16:17:38.969Z,31.60
2022-10-22T16:20:07.686Z,31.80
2022-10-22T16:22:35.915Z,31.80
2022-10-22T16:25:04.339Z,31.80
2022-10-22T16:27:32.536Z,32.00
2022-10-22T16:30:00.787Z,31.70
2022-10-22T16:32:29.077Z,31.60
2022-10-22T16:34:57.219Z,31.50
2022-10-22T16:37:25.416Z,31.30
2022-10-22T16:39:53.613Z,31.10
2022-10-22T16:42:21.797Z,31.00
2022-10-22T16:44:50.064Z,30.60
2022-10-22T16:47:18.430Z,30.50
2022-10-22T16:49:46.598Z,30.60
2022-10-22T16:52:14.850Z,30.40
2022-10-22T16:54:42.964Z,30.20
2022-10-22T16:57:11.145Z,30.00
2022-10-22T16:59:42.536Z,30.00
2022-10-22T17:02:13.465Z,30.20
2022-10-22T17:04:41.828Z,30.30
2022-10-22T17:07:10.063Z,30.10
2022-10-22T17:09:38.258Z,30.00
2022-10-22T17:12:06.863Z,30.00
2022-10-22T17:14:35.238Z,29.80
2022-10-22T17:17:03.388Z,29.80
2022-10-22T17:19:31.670Z,29.80
2022-10-22T17:21:59.873Z,29.50
2022-10-22T17:24:27.932Z,29.50
2022-10-22T17:26:56.243Z,29.50
2022-10-22T17:29:24.672Z,29.40
2022-10-22T17:31:52.794Z,29.40
2022-10-22T17:34:21.169Z,29.40
2022-10-22T17:36:49.230Z,29.40
2022-10-22T17:39:18.563Z,29.30
2022-10-22T17:41:47.235Z,29.20
2022-10-22T17:44:16.637Z,29.00
2022-10-22T17:46:45.171Z,28.90
2022-10-22T17:49:19.914Z,28.80
2022-10-22T17:51:48.697Z,28.80
2022-10-22T17:54:17.265Z,28.60
2022-10-22T17:56:45.589Z,28.50
2022-10-22T17:59:16.360Z,28.50
2022-10-22T18:01:45.077Z,28.30
2022-10-22T18:04:18.437Z,28.30
2022-10-22T18:06:47.987Z,28.30
2022-10-22T18:09:18.998Z,28.20
2022-10-22T18:11:48.654Z,28.10
2022-10-22T18:14:19.258Z,28.10
2022-10-22T18:16:48.685Z,28.10
2022-10-22T18:19:19.535Z,28.00
2022-10-22T18:21:47.871Z,28.00
2022-10-22T18:24:16.785Z,27.90
2022-10-22T18:26:45.349Z,27.90
2022-10-22T18:29:16.394Z,27.90
2022-10-22T18:31:45.352Z,27.80
2022-10-22T18:34:13.633Z,27.80
2022-10-22T18:36:42.244Z,27.80
2022-10-22T18:39:15.382Z,27.70
2022-10-22T18:41:43.891Z,27.70
2022-10-22T18:44:14.899Z,27.70
2022-10-22T18:46:43.275Z,27.70
2022-10-22T18:49:17.567Z,27.70
2022-10-22T18:51:46.034Z,27.70
2022-10-22T18:54:28.879Z,27.70
2022-10-22T18:57:00.512Z,27.70
2022-10-22T18:59:30.185Z,27.70
2022-10-22T19:01:58.339Z,27.70
2022-10-22T19:04:27.855Z,27.60
2022-10-22T19:06:57.749Z,27.60
2022-10-22T19:09:26.717Z,27.60
2022-10-22T19:11:55.498Z,27.60
2022-10-22T19:14:23.640Z,27.60
2022-10-22T19:16:51.848Z,27.60
2022-10-22T19:19:22.134Z,27.60
2022-10-22T19:21:50.842Z,27.60
2022-10-22T19:24:20.688Z,27.60
2022-10-22T19:26:49.961Z,27.60
2022-10-22T19:29:20.427Z,27.60
2022-10-22T19:31:49.319Z,27.60
2022-10-22T19:34:17.648Z,27.60
2022-10-22T19:36:45.964Z,27.60
2022-10-22T19:39:18.119Z,27.60
2022-10-22T19:41:46.499Z,27.50
2022-10-22T19:44:14.703Z,27.50
2022-10-22T19:46:43.118Z,27.50
2022-10-22T19:49:12.116Z,27.50
2022-10-22T19:51:40.489Z,27.50
2022-10-22T19:54:13.495Z,27.60
2022-10-22T19:56:41.899Z,27.50
2022-10-22T19:59:10.153Z,27.50
2022-10-22T20:01:38.706Z,27.50
2022-10-22T20:04:07.067Z,27.50
2022-10-22T20:06:35.175Z,27.50
2022-10-22T20:09:03.444Z,27.50
2022-10-22T20:11:31.863Z,27.50
2022-10-22T20:14:00.368Z,27.60
2022-10-22T20:16:30.001Z,27.50
2022-10-22T20:19:03.843Z,27.50
2022-10-22T20:21:33.165Z,27.50
2022-10-22T20:24:02.026Z,27.40
2022-10-22T20:26:30.453Z,27.50
2022-10-22T20:28:59.037Z,27.50
2022-10-22T20:31:29.557Z,27.40
2022-10-22T20:33:59.929Z,27.50
2022-10-22T20:36:29.976Z,27.50
2022-10-22T20:39:03.956Z,27.50
2022-10-22T20:41:32.738Z,27.50
2022-10-22T20:44:01.005Z,27.50
2022-10-22T20:46:31.173Z,27.30
2022-10-22T20:49:14.802Z,27.20
2022-10-22T20:51:43.578Z,26.90
2022-10-22T20:54:11.734Z,26.70
2022-10-22T20:56:41.482Z,26.40
2022-10-22T20:59:10.579Z,26.30
2022-10-22T21:01:50.553Z,26.10
2022-10-22T21:04:20.917Z,26.10
2022-10-22T21:06:49.367Z,26.10
2022-10-22T21:09:17.637Z,26.10
2022-10-22T21:11:46.278Z,26.10
2022-10-22T21:14:16.809Z,26.10
2022-10-22T21:16:47.378Z,26.00
2022-10-22T21:19:16.235Z,26.00
2022-10-22T21:21:44.600Z,26.00
2022-10-22T21:24:13.126Z,25.90
2022-10-22T21:26:43.071Z,25.90
2022-10-22T21:29:12.897Z,25.90
2022-10-22T21:31:41.111Z,25.60
2022-10-22T21:34:09.459Z,25.60
2022-10-22T21:36:37.694Z,25.50
2022-10-22T21:39:05.859Z,25.40
2022-10-22T21:41:34.330Z,25.30
2022-10-22T21:44:02.589Z,25.40
2022-10-22T21:46:30.837Z,25.30
2022-10-22T21:49:04.169Z,25.40
2022-10-22T21:51:34.702Z,25.40
2022-10-22T21:54:03.062Z,25.40
2022-10-22T21:56:34.003Z,25.50
2022-10-22T21:59:03.421Z,25.40
2022-10-22T22:01:31.951Z,25.40
2022-10-22T22:04:00.348Z,25.40
2022-10-22T22:06:33.043Z,25.40
2022-10-22T22:09:03.261Z,25.30
2022-10-22T22:11:31.948Z,25.40
2022-10-22T22:14:01.517Z,25.40
2022-10-22T22:16:32.824Z,25.40
2022-10-22T22:19:06.646Z,25.40
2022-10-22T22:21:36.806Z,25.50
2022-10-22T22:24:05.732Z,25.50
2022-10-22T22:26:34.544Z,25.60
2022-10-22T22:29:02.867Z,25.50
2022-10-22T22:31:33.558Z,25.60
2022-10-22T22:34:09.046Z,25.60
2022-10-22T22:36:39.956Z,25.70
2022-10-22T22:39:11.558Z,25.70
2022-10-22T22:41:40.835Z,25.70
2022-10-22T22:44:09.020Z,25.70
2022-10-22T22:46:37.453Z,25.70
2022-10-22T22:49:05.818Z,25.60
2022-10-22T22:51:34.230Z,25.60
2022-10-22T22:54:03.002Z,25.50
2022-10-22T22:56:33.054Z,25.50
2022-10-22T22:59:01.657Z,25.50
2022-10-22T23:01:35.661Z,25.50
2022-10-22T23:04:16.582Z,25.60
2022-10-22T23:06:45.630Z,25.60
2022-10-22T23:09:15.625Z,25.60
2022-10-22T23:11:45.678Z,25.60
2022-10-22T23:14:15.921Z,25.60
2022-10-22T23:16:47.118Z,25.60
2022-10-22T23:19:17.504Z,25.60
2022-10-22T23:21:51.103Z,25.60
2022-10-22T23:24:22.599Z,25.60
2022-10-22T23:26:52.747Z,25.60
2022-10-22T23:29:24.725Z,25.60
2022-10-22T23:31:53.457Z,25.60
2022-10-22T23:34:24.136Z,25.60
2022-10-22T23:36:53.132Z,25.60
2022-10-22T23:39:24.049Z,25.60
2022-10-22T23:41:53.385Z,25.60
2022-10-22T23:44:23.016Z,25.60
2022-10-22T23:46:51.669Z,25.70
2022-10-22T23:49:20.071Z,25.80
2022-10-22T23:51:48.356Z,25.70
2022-10-22T23:54:18.029Z,25.70
2022-10-22T23:56:46.713Z,25.70
